sensor_id;sensor_type;location;lat;lon;timestamp;temperature;humidity
12015;DHT22;6066;48.138;16.402;2023-01-30T00:01:44;-5.40;99.90
12015;DHT22;6066;48.138;16.402;2023-01-30T00:04:11;-5.40;99.90
12015;DHT22;6066;48.138;16.402;2023-01-30T00:06:37;-5.40;99.90
12015;DHT22;6066;48.138;16.402;2023-01-30T00:09:04;-5.30;99.90
12015;DHT22;6066;48.138;16.402;2023-01-30T00:11:31;-5.30;99.90
12015;DHT22;6066;48.138;16.402;2023-01-30T00:13:58;-5.30;99.90
12015;DHT22;6066;48.138;16.402;2023-01-30T00:16:25;-5.30;99.90
12015;DHT22;6066;48.138;16.402;2023-01-30T00:18:53;-5.30;99.90
12015;DHT22;6066;48.138;16.402;2023-01-30T00:21:21;-5.30;99.90
12015;DHT22;6066;48.138;16.402;2023-01-30T00:23:48;-5.30;99.90
12015;DHT22;6066;48.138;16.402;2023-01-30T00:26:14;-5.40;99.90
12015;DHT22;6066;48.138;16.402;2023-01-30T00:28:41;-5.40;99.90
12015;DHT22;6066;48.138;16.402;2023-01-30T00:31:08;-5.40;99.90
12015;DHT22;6066;48.138;16.402;2023-01-30T00:33:34;-5.50;99.90
12015;DHT22;6066;48.138;16.402;2023-01-30T00:36:03;-5.50;99.90
12015;DHT22;6066;48.138;16.402;2023-01-30T00:38:30;-5.40;99.90
12015;DHT22;6066;48.138;16.402;2023-01-30T00:40:56;-5.40;99.90
12015;DHT22;6066;48.138;16.402;2023-01-30T00:43:23;-5.40;99.90
12015;DHT22;6066;48.138;16.402;2023-01-30T00:46:09;-5.40;99.90
12015;DHT22;6066;48.138;16.402;2023-01-30T00:49:04;-5.40;99.90
12015;DHT22;6066;48.138;16.402;2023-01-30T00:51:32;-5.40;99.90
12015;DHT22;6066;48.138;16.402;2023-01-30T00:53:58;-5.40;99.90
12015;DHT22;6066;48.138;16.402;2023-01-30T00:56:25;-5.50;99.90
12015;DHT22;6066;48.138;16.402;2023-01-30T00:58:52;-5.50;99.90
12015;DHT22;6066;48.138;16.402;2023-01-30T01:01:18;-5.50;99.90
12015;DHT22;6066;48.138;16.402;2023-01-30T01:03:45;-5.50;99.90
12015;DHT22;6066;48.138;16.402;2023-01-30T01:06:12;-5.50;99.90
12015;DHT22;6066;48.138;16.402;2023-01-30T01:08:40;-5.50;99.90
12015;DHT22;6066;48.138;16.402;2023-01-30T01:11:07;-5.50;99.90
12015;DHT22;6066;48.138;16.402;2023-01-30T01:13:33;-5.50;99.90
12015;DHT22;6066;48.138;16.402;2023-01-30T01:16:00;-5.50;99.90
12015;DHT22;6066;48.138;16.402;2023-01-30T01:18:27;-5.50;99.90
12015;DHT22;6066;48.138;16.402;2023-01-30T01:20:53;-5.50;99.90
12015;DHT22;6066;48.138;16.402;2023-01-30T01:23:20;-5.50;99.90
12015;DHT22;6066;48.138;16.402;2023-01-30T01:25:48;-5.50;99.90
12015;DHT22;6066;48.138;16.402;2023-01-30T01:28:15;-5.60;99.90
12015;DHT22;6066;48.138;16.402;2023-01-30T01:30:45;-5.60;99.90
12015;DHT22;6066;48.138;16.402;2023-01-30T01:33:12;-5.60;99.90
12015;DHT22;6066;48.138;16.402;2023-01-30T01:35:39;-5.60;99.90
12015;DHT22;6066;48.138;16.402;2023-01-30T01:38:06;-5.70;99.90
12015;DHT22;6066;48.138;16.402;2023-01-30T01:40:32;-5.70;99.90
12015;DHT22;6066;48.138;16.402;2023-01-30T01:43:18;-5.80;99.90
12015;DHT22;6066;48.138;16.402;2023-01-30T01:45:45;-5.80;99.90
12015;DHT22;6066;48.138;16.402;2023-01-30T01:48:15;-5.90;99.90
12015;DHT22;6066;48.138;16.402;2023-01-30T01:50:45;-5.90;99.90
12015;DHT22;6066;48.138;16.402;2023-01-30T01:53:14;-5.90;99.90
12015;DHT22;6066;48.138;16.402;2023-01-30T01:55:42;-6.00;99.90
12015;DHT22;6066;48.138;16.402;2023-01-30T01:58:10;-6.00;99.90
12015;DHT22;6066;48.138;16.402;2023-01-30T02:00:39;-6.00;99.90
12015;DHT22;6066;48.138;16.402;2023-01-30T02:03:06;-6.00;99.90
12015;DHT22;6066;48.138;16.402;2023-01-30T02:05:35;-6.10;99.90
12015;DHT22;6066;48.138;16.402;2023-01-30T02:08:04;-6.10;99.90
12015;DHT22;6066;48.138;16.402;2023-01-30T02:10:33;-6.10;99.90
12015;DHT22;6066;48.138;16.402;2023-01-30T02:13:02;-6.10;99.90
12015;DHT22;6066;48.138;16.402;2023-01-30T02:15:29;-6.10;99.90
12015;DHT22;6066;48.138;16.402;2023-01-30T02:17:57;-6.10;99.90
12015;DHT22;6066;48.138;16.402;2023-01-30T02:20:26;-6.10;99.90
12015;DHT22;6066;48.138;16.402;2023-01-30T02:29:00;-6.20;99.90
12015;DHT22;6066;48.138;16.402;2023-01-30T02:31:35;-6.20;99.90
12015;DHT22;6066;48.138;16.402;2023-01-30T02:34:11;-6.20;99.90
12015;DHT22;6066;48.138;16.402;2023-01-30T02:36:45;-6.20;99.90
12015;DHT22;6066;48.138;16.402;2023-01-30T02:39:18;-6.10;99.90
12015;DHT22;6066;48.138;16.402;2023-01-30T02:41:50;-6.10;99.90
12015;DHT22;6066;48.138;16.402;2023-01-30T02:44:23;-6.10;99.90
12015;DHT22;6066;48.138;16.402;2023-01-30T02:46:55;-6.10;99.90
12015;DHT22;6066;48.138;16.402;2023-01-30T02:49:24;-6.20;99.90
12015;DHT22;6066;48.138;16.402;2023-01-30T02:51:53;-6.30;99.90
12015;DHT22;6066;48.138;16.402;2023-01-30T02:54:20;-6.30;99.90
12015;DHT22;6066;48.138;16.402;2023-01-30T02:56:47;-6.40;99.90
12015;DHT22;6066;48.138;16.402;2023-01-30T02:59:14;-6.40;99.90
12015;DHT22;6066;48.138;16.402;2023-01-30T03:02:05;-6.50;99.90
12015;DHT22;6066;48.138;16.402;2023-01-30T03:04:55;-6.50;99.90
12015;DHT22;6066;48.138;16.402;2023-01-30T03:07:31;-6.60;99.90
12015;DHT22;6066;48.138;16.402;2023-01-30T03:10:01;-6.60;99.90
12015;DHT22;6066;48.138;16.402;2023-01-30T03:12:35;-6.60;99.90
12015;DHT22;6066;48.138;16.402;2023-01-30T03:15:06;-6.60;99.90
12015;DHT22;6066;48.138;16.402;2023-01-30T03:17:37;-6.60;99.90
12015;DHT22;6066;48.138;16.402;2023-01-30T03:20:07;-6.60;99.90
12015;DHT22;6066;48.138;16.402;2023-01-30T03:22:35;-6.60;99.90
12015;DHT22;6066;48.138;16.402;2023-01-30T03:25:01;-6.60;99.90
12015;DHT22;6066;48.138;16.402;2023-01-30T03:27:28;-6.60;99.90
12015;DHT22;6066;48.138;16.402;2023-01-30T03:29:55;-6.60;99.90
12015;DHT22;6066;48.138;16.402;2023-01-30T03:32:22;-6.60;99.90
12015;DHT22;6066;48.138;16.402;2023-01-30T03:34:50;-6.60;99.90
12015;DHT22;6066;48.138;16.402;2023-01-30T03:37:17;-6.60;99.90
12015;DHT22;6066;48.138;16.402;2023-01-30T03:39:43;-6.60;99.90
12015;DHT22;6066;48.138;16.402;2023-01-30T03:42:10;-6.60;99.90
12015;DHT22;6066;48.138;16.402;2023-01-30T03:44:37;-6.60;99.90
12015;DHT22;6066;48.138;16.402;2023-01-30T03:47:03;-6.60;99.90
12015;DHT22;6066;48.138;16.402;2023-01-30T03:49:30;-6.60;99.90
12015;DHT22;6066;48.138;16.402;2023-01-30T03:51:58;-6.60;99.90
12015;DHT22;6066;48.138;16.402;2023-01-30T03:54:25;-6.60;99.90
12015;DHT22;6066;48.138;16.402;2023-01-30T03:56:52;-6.60;99.90
12015;DHT22;6066;48.138;16.402;2023-01-30T03:59:18;-6.70;99.90
12015;DHT22;6066;48.138;16.402;2023-01-30T04:01:45;-6.70;99.90
12015;DHT22;6066;48.138;16.402;2023-01-30T04:04:12;-6.70;99.90
12015;DHT22;6066;48.138;16.402;2023-01-30T04:06:38;-6.80;99.90
12015;DHT22;6066;48.138;16.402;2023-01-30T04:09:06;-6.80;99.90
12015;DHT22;6066;48.138;16.402;2023-01-30T04:11:33;-6.70;99.90
12015;DHT22;6066;48.138;16.402;2023-01-30T04:14:00;-6.70;99.90
12015;DHT22;6066;48.138;16.402;2023-01-30T04:16:26;-6.70;99.90
12015;DHT22;6066;48.138;16.402;2023-01-30T04:18:53;-6.70;99.90
12015;DHT22;6066;48.138;16.402;2023-01-30T04:21:20;-6.60;99.90
12015;DHT22;6066;48.138;16.402;2023-01-30T04:23:46;-6.60;99.90
12015;DHT22;6066;48.138;16.402;2023-01-30T04:26:14;-6.50;99.90
12015;DHT22;6066;48.138;16.402;2023-01-30T04:28:41;-6.50;99.90
12015;DHT22;6066;48.138;16.402;2023-01-30T04:31:09;-6.50;99.90
12015;DHT22;6066;48.138;16.402;2023-01-30T04:33:35;-6.40;99.90
12015;DHT22;6066;48.138;16.402;2023-01-30T04:36:04;-6.40;99.90
12015;DHT22;6066;48.138;16.402;2023-01-30T04:38:32;-6.40;99.90
12015;DHT22;6066;48.138;16.402;2023-01-30T04:40:59;-6.40;99.90
12015;DHT22;6066;48.138;16.402;2023-01-30T04:43:27;-6.40;99.90
12015;DHT22;6066;48.138;16.402;2023-01-30T04:45:54;-6.40;99.90
12015;DHT22;6066;48.138;16.402;2023-01-30T04:48:22;-6.40;99.90
12015;DHT22;6066;48.138;16.402;2023-01-30T04:50:50;-6.40;99.90
12015;DHT22;6066;48.138;16.402;2023-01-30T04:53:17;-6.40;99.90
12015;DHT22;6066;48.138;16.402;2023-01-30T04:55:45;-6.40;99.90
12015;DHT22;6066;48.138;16.402;2023-01-30T04:58:12;-6.40;99.90
12015;DHT22;6066;48.138;16.402;2023-01-30T05:00:40;-6.40;99.90
12015;DHT22;6066;48.138;16.402;2023-01-30T05:03:06;-6.40;99.90
12015;DHT22;6066;48.138;16.402;2023-01-30T05:05:33;-6.30;99.90
12015;DHT22;6066;48.138;16.402;2023-01-30T05:08:00;-6.30;99.90
12015;DHT22;6066;48.138;16.402;2023-01-30T05:10:27;-6.20;99.90
12015;DHT22;6066;48.138;16.402;2023-01-30T05:12:53;-6.10;99.90
12015;DHT22;6066;48.138;16.402;2023-01-30T05:15:20;-6.10;99.90
12015;DHT22;6066;48.138;16.402;2023-01-30T05:17:48;-6.10;99.90
12015;DHT22;6066;48.138;16.402;2023-01-30T05:20:15;-6.00;99.90
12015;DHT22;6066;48.138;16.402;2023-01-30T05:22:42;-6.00;99.90
12015;DHT22;6066;48.138;16.402;2023-01-30T05:25:08;-6.00;99.90
12015;DHT22;6066;48.138;16.402;2023-01-30T05:27:35;-5.90;99.90
12015;DHT22;6066;48.138;16.402;2023-01-30T05:30:02;-5.90;99.90
12015;DHT22;6066;48.138;16.402;2023-01-30T05:32:29;-5.80;99.90
12015;DHT22;6066;48.138;16.402;2023-01-30T05:34:57;-5.70;99.90
12015;DHT22;6066;48.138;16.402;2023-01-30T05:37:23;-5.70;99.90
12015;DHT22;6066;48.138;16.402;2023-01-30T05:39:50;-5.60;99.90
12015;DHT22;6066;48.138;16.402;2023-01-30T05:42:17;-5.60;99.90
12015;DHT22;6066;48.138;16.402;2023-01-30T05:44:43;-5.60;99.90
12015;DHT22;6066;48.138;16.402;2023-01-30T05:47:10;-5.60;99.90
12015;DHT22;6066;48.138;16.402;2023-01-30T05:49:37;-5.50;99.90
12015;DHT22;6066;48.138;16.402;2023-01-30T05:52:05;-5.60;99.90
12015;DHT22;6066;48.138;16.402;2023-01-30T05:54:32;-5.50;99.90
12015;DHT22;6066;48.138;16.402;2023-01-30T05:57:00;-5.50;99.90
12015;DHT22;6066;48.138;16.402;2023-01-30T05:59:29;-5.50;99.90
12015;DHT22;6066;48.138;16.402;2023-01-30T06:01:55;-5.40;99.90
12015;DHT22;6066;48.138;16.402;2023-01-30T06:04:22;-5.40;99.90
12015;DHT22;6066;48.138;16.402;2023-01-30T06:06:49;-5.40;99.90
12015;DHT22;6066;48.138;16.402;2023-01-30T06:09:17;-5.30;99.90
12015;DHT22;6066;48.138;16.402;2023-01-30T06:11:44;-5.30;99.90
12015;DHT22;6066;48.138;16.402;2023-01-30T06:14:10;-5.30;99.90
12015;DHT22;6066;48.138;16.402;2023-01-30T06:16:37;-5.30;99.90
12015;DHT22;6066;48.138;16.402;2023-01-30T06:19:04;-5.20;99.90
12015;DHT22;6066;48.138;16.402;2023-01-30T06:21:30;-5.20;99.90
12015;DHT22;6066;48.138;16.402;2023-01-30T06:23:57;-5.20;99.90
12015;DHT22;6066;48.138;16.402;2023-01-30T06:26:25;-5.20;99.90
12015;DHT22;6066;48.138;16.402;2023-01-30T06:28:52;-5.10;99.90
12015;DHT22;6066;48.138;16.402;2023-01-30T06:31:18;-5.10;99.90
12015;DHT22;6066;48.138;16.402;2023-01-30T06:33:45;-5.10;99.90
12015;DHT22;6066;48.138;16.402;2023-01-30T06:36:13;-5.00;99.90
12015;DHT22;6066;48.138;16.402;2023-01-30T06:38:40;-5.00;99.90
12015;DHT22;6066;48.138;16.402;2023-01-30T06:41:06;-5.00;99.90
12015;DHT22;6066;48.138;16.402;2023-01-30T06:43:34;-5.00;99.90
12015;DHT22;6066;48.138;16.402;2023-01-30T06:46:01;-4.90;99.90
12015;DHT22;6066;48.138;16.402;2023-01-30T06:48:28;-4.90;99.90
12015;DHT22;6066;48.138;16.402;2023-01-30T06:50:55;-4.80;99.90
12015;DHT22;6066;48.138;16.402;2023-01-30T06:53:21;-4.80;99.90
12015;DHT22;6066;48.138;16.402;2023-01-30T06:55:54;-4.70;99.90
12015;DHT22;6066;48.138;16.402;2023-01-30T06:58:21;-4.70;99.90
12015;DHT22;6066;48.138;16.402;2023-01-30T07:00:49;-4.60;99.90
12015;DHT22;6066;48.138;16.402;2023-01-30T07:03:16;-4.50;99.90
12015;DHT22;6066;48.138;16.402;2023-01-30T07:05:43;-4.40;99.90
12015;DHT22;6066;48.138;16.402;2023-01-30T07:08:10;-4.40;99.90
12015;DHT22;6066;48.138;16.402;2023-01-30T07:10:37;-4.30;99.90
12015;DHT22;6066;48.138;16.402;2023-01-30T07:13:04;-4.30;99.90
12015;DHT22;6066;48.138;16.402;2023-01-30T07:15:31;-4.20;99.90
12015;DHT22;6066;48.138;16.402;2023-01-30T07:18:00;-4.20;99.90
12015;DHT22;6066;48.138;16.402;2023-01-30T07:20:27;-4.10;99.90
12015;DHT22;6066;48.138;16.402;2023-01-30T07:22:54;-4.00;99.90
12015;DHT22;6066;48.138;16.402;2023-01-30T07:25:22;-3.90;99.90
12015;DHT22;6066;48.138;16.402;2023-01-30T07:27:49;-3.70;99.90
12015;DHT22;6066;48.138;16.402;2023-01-30T07:30:16;-3.60;99.90
12015;DHT22;6066;48.138;16.402;2023-01-30T07:32:42;-3.40;99.90
12015;DHT22;6066;48.138;16.402;2023-01-30T07:35:11;-3.20;99.90
12015;DHT22;6066;48.138;16.402;2023-01-30T07:37:37;-3.00;99.90
12015;DHT22;6066;48.138;16.402;2023-01-30T07:40:04;-2.70;99.90
12015;DHT22;6066;48.138;16.402;2023-01-30T07:42:31;-2.30;99.90
12015;DHT22;6066;48.138;16.402;2023-01-30T07:44:58;-1.90;99.90
12015;DHT22;6066;48.138;16.402;2023-01-30T07:47:24;-1.40;99.90
12015;DHT22;6066;48.138;16.402;2023-01-30T07:49:51;-1.10;99.90
12015;DHT22;6066;48.138;16.402;2023-01-30T07:52:19;-0.70;99.90
12015;DHT22;6066;48.138;16.402;2023-01-30T07:54:46;-0.50;99.90
12015;DHT22;6066;48.138;16.402;2023-01-30T07:57:12;-0.40;99.90
12015;DHT22;6066;48.138;16.402;2023-01-30T07:59:39;-0.30;99.90
12015;DHT22;6066;48.138;16.402;2023-01-30T08:02:07;-0.40;99.90
12015;DHT22;6066;48.138;16.402;2023-01-30T08:04:34;-0.50;99.90
12015;DHT22;6066;48.138;16.402;2023-01-30T08:07:01;-0.50;99.90
12015;DHT22;6066;48.138;16.402;2023-01-30T08:09:29;-0.60;99.90
12015;DHT22;6066;48.138;16.402;2023-01-30T08:11:55;-0.70;99.90
12015;DHT22;6066;48.138;16.402;2023-01-30T08:14:22;-0.70;99.90
12015;DHT22;6066;48.138;16.402;2023-01-30T08:16:49;-0.70;99.90
12015;DHT22;6066;48.138;16.402;2023-01-30T08:19:16;-0.80;99.90
12015;DHT22;6066;48.138;16.402;2023-01-30T08:21:43;-0.80;99.90
12015;DHT22;6066;48.138;16.402;2023-01-30T08:24:10;-0.80;99.90
12015;DHT22;6066;48.138;16.402;2023-01-30T08:26:38;-0.70;99.90
12015;DHT22;6066;48.138;16.402;2023-01-30T08:29:04;-0.50;99.90
12015;DHT22;6066;48.138;16.402;2023-01-30T08:31:31;-0.20;99.90
12015;DHT22;6066;48.138;16.402;2023-01-30T08:33:58;0.10;99.90
12015;DHT22;6066;48.138;16.402;2023-01-30T08:36:24;0.50;99.90
12015;DHT22;6066;48.138;16.402;2023-01-30T08:38:51;0.80;99.90
12015;DHT22;6066;48.138;16.402;2023-01-30T08:44:22;1.20;99.90
12015;DHT22;6066;48.138;16.402;2023-01-30T08:46:49;1.60;99.90
12015;DHT22;6066;48.138;16.402;2023-01-30T08:49:16;1.90;99.90
12015;DHT22;6066;48.138;16.402;2023-01-30T08:51:42;2.10;99.90
12015;DHT22;6066;48.138;16.402;2023-01-30T08:54:09;2.20;99.90
12015;DHT22;6066;48.138;16.402;2023-01-30T08:56:36;2.30;99.90
12015;DHT22;6066;48.138;16.402;2023-01-30T08:59:02;2.40;99.90
12015;DHT22;6066;48.138;16.402;2023-01-30T09:01:30;2.50;99.90
12015;DHT22;6066;48.138;16.402;2023-01-30T09:03:57;2.60;99.90
12015;DHT22;6066;48.138;16.402;2023-01-30T09:06:24;2.70;99.90
12015;DHT22;6066;48.138;16.402;2023-01-30T09:08:51;2.80;99.90
12015;DHT22;6066;48.138;16.402;2023-01-30T09:11:17;2.90;99.90
12015;DHT22;6066;48.138;16.402;2023-01-30T09:13:44;3.00;99.90
12015;DHT22;6066;48.138;16.402;2023-01-30T09:16:11;3.00;99.90
12015;DHT22;6066;48.138;16.402;2023-01-30T09:18:40;3.10;99.90
12015;DHT22;6066;48.138;16.402;2023-01-30T09:21:07;3.10;99.90
12015;DHT22;6066;48.138;16.402;2023-01-30T09:23:34;3.10;99.90
12015;DHT22;6066;48.138;16.402;2023-01-30T09:26:01;3.10;99.90
12015;DHT22;6066;48.138;16.402;2023-01-30T09:28:28;3.10;99.90
12015;DHT22;6066;48.138;16.402;2023-01-30T09:30:55;3.00;99.90
12015;DHT22;6066;48.138;16.402;2023-01-30T09:33:22;3.00;99.90
12015;DHT22;6066;48.138;16.402;2023-01-30T09:35:50;3.00;99.90
12015;DHT22;6066;48.138;16.402;2023-01-30T09:38:17;3.00;99.90
12015;DHT22;6066;48.138;16.402;2023-01-30T09:40:47;2.90;99.90
12015;DHT22;6066;48.138;16.402;2023-01-30T09:43:22;2.90;99.90
12015;DHT22;6066;48.138;16.402;2023-01-30T09:46:02;2.80;99.90
12015;DHT22;6066;48.138;16.402;2023-01-30T09:48:31;2.80;99.90
12015;DHT22;6066;48.138;16.402;2023-01-30T09:53:47;2.70;99.90
12015;DHT22;6066;48.138;16.402;2023-01-30T09:56:17;2.80;99.90
12015;DHT22;6066;48.138;16.402;2023-01-30T09:58:45;2.80;99.90
12015;DHT22;6066;48.138;16.402;2023-01-30T10:01:15;2.80;99.90
12015;DHT22;6066;48.138;16.402;2023-01-30T10:03:48;2.80;99.90
12015;DHT22;6066;48.138;16.402;2023-01-30T10:06:15;2.80;99.90
12015;DHT22;6066;48.138;16.402;2023-01-30T10:08:44;3.00;99.90
12015;DHT22;6066;48.138;16.402;2023-01-30T10:11:19;3.20;99.90
12015;DHT22;6066;48.138;16.402;2023-01-30T10:13:56;3.40;99.90
12015;DHT22;6066;48.138;16.402;2023-01-30T10:16:29;3.60;99.90
12015;DHT22;6066;48.138;16.402;2023-01-30T10:21:45;4.10;99.90
12015;DHT22;6066;48.138;16.402;2023-01-30T10:24:23;4.30;99.90
12015;DHT22;6066;48.138;16.402;2023-01-30T10:26:53;4.60;99.90
12015;DHT22;6066;48.138;16.402;2023-01-30T10:29:22;4.70;99.90
12015;DHT22;6066;48.138;16.402;2023-01-30T10:31:53;4.70;99.90
12015;DHT22;6066;48.138;16.402;2023-01-30T10:34:22;4.70;99.90
12015;DHT22;6066;48.138;16.402;2023-01-30T10:36:51;4.70;99.90
12015;DHT22;6066;48.138;16.402;2023-01-30T10:39:22;4.70;99.90
12015;DHT22;6066;48.138;16.402;2023-01-30T10:41:51;4.60;99.90
12015;DHT22;6066;48.138;16.402;2023-01-30T10:44:21;4.50;99.90
12015;DHT22;6066;48.138;16.402;2023-01-30T10:46:58;4.30;99.90
12015;DHT22;6066;48.138;16.402;2023-01-30T10:49:28;4.20;99.90
12015;DHT22;6066;48.138;16.402;2023-01-30T10:51:59;4.10;99.90
12015;DHT22;6066;48.138;16.402;2023-01-30T10:54:30;4.10;99.90
12015;DHT22;6066;48.138;16.402;2023-01-30T10:57:01;4.00;99.90
12015;DHT22;6066;48.138;16.402;2023-01-30T10:59:33;3.90;99.90
12015;DHT22;6066;48.138;16.402;2023-01-30T11:02:11;3.90;99.90
12015;DHT22;6066;48.138;16.402;2023-01-30T11:04:43;3.80;99.90
12015;DHT22;6066;48.138;16.402;2023-01-30T11:07:12;3.70;99.90
12015;DHT22;6066;48.138;16.402;2023-01-30T11:09:40;3.60;99.90
12015;DHT22;6066;48.138;16.402;2023-01-30T11:12:07;3.40;99.90
12015;DHT22;6066;48.138;16.402;2023-01-30T11:14:51;3.40;99.90
12015;DHT22;6066;48.138;16.402;2023-01-30T11:17:18;3.40;99.90
12015;DHT22;6066;48.138;16.402;2023-01-30T11:19:52;3.50;99.90
12015;DHT22;6066;48.138;16.402;2023-01-30T11:22:19;3.60;99.90
12015;DHT22;6066;48.138;16.402;2023-01-30T11:24:46;3.90;99.90
12015;DHT22;6066;48.138;16.402;2023-01-30T11:27:15;4.10;99.90
12015;DHT22;6066;48.138;16.402;2023-01-30T11:29:42;4.40;99.90
12015;DHT22;6066;48.138;16.402;2023-01-30T11:32:13;4.70;99.90
12015;DHT22;6066;48.138;16.402;2023-01-30T11:34:40;5.00;99.90
12015;DHT22;6066;48.138;16.402;2023-01-30T11:37:11;5.10;99.90
12015;DHT22;6066;48.138;16.402;2023-01-30T11:39:38;5.10;99.90
12015;DHT22;6066;48.138;16.402;2023-01-30T11:42:12;5.00;99.90
12015;DHT22;6066;48.138;16.402;2023-01-30T11:44:39;4.80;99.90
12015;DHT22;6066;48.138;16.402;2023-01-30T11:47:07;4.60;99.90
12015;DHT22;6066;48.138;16.402;2023-01-30T11:49:36;4.50;99.90
12015;DHT22;6066;48.138;16.402;2023-01-30T11:52:04;4.50;99.90
12015;DHT22;6066;48.138;16.402;2023-01-30T11:54:32;4.50;99.90
12015;DHT22;6066;48.138;16.402;2023-01-30T11:57:00;4.60;99.90
12015;DHT22;6066;48.138;16.402;2023-01-30T11:59:29;4.70;99.90
12015;DHT22;6066;48.138;16.402;2023-01-30T12:02:03;5.00;99.90
12015;DHT22;6066;48.138;16.402;2023-01-30T12:04:30;5.20;99.90
12015;DHT22;6066;48.138;16.402;2023-01-30T12:07:04;5.30;99.90
12015;DHT22;6066;48.138;16.402;2023-01-30T12:09:32;5.50;99.90
12015;DHT22;6066;48.138;16.402;2023-01-30T12:11:59;5.70;99.90
12015;DHT22;6066;48.138;16.402;2023-01-30T12:14:31;5.90;99.90
12015;DHT22;6066;48.138;16.402;2023-01-30T12:17:02;6.00;99.90
12015;DHT22;6066;48.138;16.402;2023-01-30T12:19:32;6.20;99.90
12015;DHT22;6066;48.138;16.402;2023-01-30T12:22:07;6.40;99.90
12015;DHT22;6066;48.138;16.402;2023-01-30T12:24:37;6.70;99.90
12015;DHT22;6066;48.138;16.402;2023-01-30T12:27:07;6.90;99.90
12015;DHT22;6066;48.138;16.402;2023-01-30T12:29:37;6.80;99.90
12015;DHT22;6066;48.138;16.402;2023-01-30T12:32:10;6.50;99.90
12015;DHT22;6066;48.138;16.402;2023-01-30T12:34:38;6.20;99.90
12015;DHT22;6066;48.138;16.402;2023-01-30T12:37:11;6.00;99.90
12015;DHT22;6066;48.138;16.402;2023-01-30T12:39:46;5.80;99.90
12015;DHT22;6066;48.138;16.402;2023-01-30T12:42:20;5.60;99.90
12015;DHT22;6066;48.138;16.402;2023-01-30T12:44:58;5.50;99.90
12015;DHT22;6066;48.138;16.402;2023-01-30T12:47:30;5.30;99.90
12015;DHT22;6066;48.138;16.402;2023-01-30T12:50:02;5.30;99.90
12015;DHT22;6066;48.138;16.402;2023-01-30T12:52:49;5.10;99.90
12015;DHT22;6066;48.138;16.402;2023-01-30T12:55:20;5.10;99.90
12015;DHT22;6066;48.138;16.402;2023-01-30T12:57:50;5.00;99.90
12015;DHT22;6066;48.138;16.402;2023-01-30T13:00:31;5.00;99.90
12015;DHT22;6066;48.138;16.402;2023-01-30T13:03:03;4.90;99.90
12015;DHT22;6066;48.138;16.402;2023-01-30T13:05:37;4.90;99.90
12015;DHT22;6066;48.138;16.402;2023-01-30T13:08:09;4.80;99.90
12015;DHT22;6066;48.138;16.402;2023-01-30T13:10:42;4.80;99.90
12015;DHT22;6066;48.138;16.402;2023-01-30T13:13:16;4.70;99.90
12015;DHT22;6066;48.138;16.402;2023-01-30T13:15:44;4.60;99.90
12015;DHT22;6066;48.138;16.402;2023-01-30T13:18:13;4.50;99.90
12015;DHT22;6066;48.138;16.402;2023-01-30T13:20:48;4.40;99.90
12015;DHT22;6066;48.138;16.402;2023-01-30T13:23:19;4.30;99.90
12015;DHT22;6066;48.138;16.402;2023-01-30T13:25:52;4.10;99.90
12015;DHT22;6066;48.138;16.402;2023-01-30T13:28:20;4.00;99.90
12015;DHT22;6066;48.138;16.402;2023-01-30T13:30:49;3.80;99.90
12015;DHT22;6066;48.138;16.402;2023-01-30T13:33:18;3.70;99.90
12015;DHT22;6066;48.138;16.402;2023-01-30T13:35:47;3.60;99.90
12015;DHT22;6066;48.138;16.402;2023-01-30T13:38:16;3.50;99.90
12015;DHT22;6066;48.138;16.402;2023-01-30T13:40:45;3.40;99.90
12015;DHT22;6066;48.138;16.402;2023-01-30T13:43:13;3.30;99.90
12015;DHT22;6066;48.138;16.402;2023-01-30T13:45:41;3.20;99.90
12015;DHT22;6066;48.138;16.402;2023-01-30T13:48:15;3.10;99.90
12015;DHT22;6066;48.138;16.402;2023-01-30T13:50:54;3.00;99.90
12015;DHT22;6066;48.138;16.402;2023-01-30T13:53:24;2.90;99.90
12015;DHT22;6066;48.138;16.402;2023-01-30T13:55:56;2.80;99.90
12015;DHT22;6066;48.138;16.402;2023-01-30T13:58:30;2.80;99.90
12015;DHT22;6066;48.138;16.402;2023-01-30T14:00:59;2.70;99.90
12015;DHT22;6066;48.138;16.402;2023-01-30T14:03:27;2.60;99.90
12015;DHT22;6066;48.138;16.402;2023-01-30T14:06:13;2.60;99.90
12015;DHT22;6066;48.138;16.402;2023-01-30T14:08:49;2.50;99.90
12015;DHT22;6066;48.138;16.402;2023-01-30T14:11:28;2.50;99.90
12015;DHT22;6066;48.138;16.402;2023-01-30T14:13:57;2.40;99.90
12015;DHT22;6066;48.138;16.402;2023-01-30T14:16:37;2.50;99.90
12015;DHT22;6066;48.138;16.402;2023-01-30T14:19:17;2.40;99.90
12015;DHT22;6066;48.138;16.402;2023-01-30T14:21:52;2.40;99.90
12015;DHT22;6066;48.138;16.402;2023-01-30T14:24:20;2.40;99.90
12015;DHT22;6066;48.138;16.402;2023-01-30T14:26:59;2.50;99.90
12015;DHT22;6066;48.138;16.402;2023-01-30T14:37:45;2.60;99.90
12015;DHT22;6066;48.138;16.402;2023-01-30T14:43:34;2.70;99.90
12015;DHT22;6066;48.138;16.402;2023-01-30T14:46:02;2.70;99.90
12015;DHT22;6066;48.138;16.402;2023-01-30T14:48:30;2.80;99.90
12015;DHT22;6066;48.138;16.402;2023-01-30T14:51:20;2.90;99.90
12015;DHT22;6066;48.138;16.402;2023-01-30T14:53:49;3.00;99.90
12015;DHT22;6066;48.138;16.402;2023-01-30T14:56:17;3.10;99.90
12015;DHT22;6066;48.138;16.402;2023-01-30T14:58:51;3.30;99.90
12015;DHT22;6066;48.138;16.402;2023-01-30T15:01:19;3.40;99.90
12015;DHT22;6066;48.138;16.402;2023-01-30T15:03:46;3.40;99.90
12015;DHT22;6066;48.138;16.402;2023-01-30T15:06:13;3.50;99.90
12015;DHT22;6066;48.138;16.402;2023-01-30T15:08:41;3.50;99.90
12015;DHT22;6066;48.138;16.402;2023-01-30T15:11:10;3.50;99.90
12015;DHT22;6066;48.138;16.402;2023-01-30T15:13:54;3.50;99.90
12015;DHT22;6066;48.138;16.402;2023-01-30T15:16:28;3.50;99.90
12015;DHT22;6066;48.138;16.402;2023-01-30T15:19:02;3.50;99.90
12015;DHT22;6066;48.138;16.402;2023-01-30T15:21:42;3.60;99.90
12015;DHT22;6066;48.138;16.402;2023-01-30T15:24:15;3.60;99.90
12015;DHT22;6066;48.138;16.402;2023-01-30T15:26:47;3.60;99.90
12015;DHT22;6066;48.138;16.402;2023-01-30T15:32:15;3.60;99.90
12015;DHT22;6066;48.138;16.402;2023-01-30T15:34:47;3.50;99.90
12015;DHT22;6066;48.138;16.402;2023-01-30T15:37:27;3.40;99.90
12015;DHT22;6066;48.138;16.402;2023-01-30T15:40:08;3.40;99.90
12015;DHT22;6066;48.138;16.402;2023-01-30T15:42:35;3.30;99.90
12015;DHT22;6066;48.138;16.402;2023-01-30T15:45:02;3.30;99.90
12015;DHT22;6066;48.138;16.402;2023-01-30T15:47:39;3.30;99.90
12015;DHT22;6066;48.138;16.402;2023-01-30T15:50:09;3.30;99.90
12015;DHT22;6066;48.138;16.402;2023-01-30T15:52:37;3.30;99.90
12015;DHT22;6066;48.138;16.402;2023-01-30T15:55:13;3.30;99.90
12015;DHT22;6066;48.138;16.402;2023-01-30T15:57:40;3.30;99.90
12015;DHT22;6066;48.138;16.402;2023-01-30T16:00:17;3.40;99.90
12015;DHT22;6066;48.138;16.402;2023-01-30T16:02:46;3.40;99.90
12015;DHT22;6066;48.138;16.402;2023-01-30T16:05:14;3.40;99.90
12015;DHT22;6066;48.138;16.402;2023-01-30T16:07:41;3.40;99.90
12015;DHT22;6066;48.138;16.402;2023-01-30T16:10:10;3.40;99.90
12015;DHT22;6066;48.138;16.402;2023-01-30T16:12:37;3.40;99.90
12015;DHT22;6066;48.138;16.402;2023-01-30T16:15:05;3.50;99.90
12015;DHT22;6066;48.138;16.402;2023-01-30T16:17:37;3.50;99.90
12015;DHT22;6066;48.138;16.402;2023-01-30T16:20:10;3.60;99.90